This is the latest recevied weather packets stored in our database for station/object OE3PDB-10. If no packets are shown the sender has not sent any weather packets the latest 1 day(s).
| Time | Temp. | Humidity | Pressure | Rain* | Wind** | Luminosity | Snow |
|---|---|---|---|---|---|---|---|
| 1777969245 | 23.33° C | 41% | 1111 hPa | 0 mm | 0 m/s | - | - |
| 1777968645 | 23.33° C | 43% | 1111 hPa | 0 mm | 0 m/s | - | - |
| 1777968045 | 22.78° C | 42% | 1111 hPa | 0 mm | 0 m/s | - | - |
| 1777967445 | 22.78° C | 42% | 1111 hPa | 0 mm | 0 m/s | - | - |
| 1777966845 | 22.78° C | 42% | 1111 hPa | 0 mm | 0 m/s | - | - |
| 1777966245 | 22.78° C | 45% | 1111 hPa | 0 mm | 0 m/s | - | - |
| 1777965645 | 22.22° C | 46% | 1111 hPa | 0 mm | 0 m/s | - | - |
| 1777965045 | 21.11° C | 51% | 1111 hPa | 0 mm | 0 m/s | - | - |
| 1777964445 | 19.44° C | 57% | 1111 hPa | 0 mm | 0 m/s | - | - |
| 1777963845 | 15.56° C | 64% | 1111 hPa | 0 mm | 0 m/s | - | - |
| 1777963245 | 15° C | 63% | 1111 hPa | 0 mm | 0 m/s | - | - |
| 1777962645 | 15° C | 64% | 1111 hPa | 0 mm | 0 m/s | - | - |
| 1777962045 | 14.44° C | 64% | 1111 hPa | 0 mm | 0 m/s | - | - |
| 1777961445 | 14.44° C | 63% | 1111 hPa | 0 mm | 0 m/s | - | - |
| 1777960845 | 15° C | 63% | 1111 hPa | 0 mm | 0 m/s | - | - |
| 1777960245 | 14.44° C | 64% | 1111 hPa | 0 mm | 0 m/s | - | - |
| 1777959645 | 13.89° C | 64% | 1111 hPa | 0 mm | 0 m/s | - | - |
| 1777959045 | 13.89° C | 64% | 1111 hPa | 0 mm | 0 m/s | - | - |
| 1777958445 | 13.89° C | 65% | 1111 hPa | 0 mm | 0 m/s | - | - |
| 1777957845 | 12.78° C | 67% | 1111 hPa | 0 mm | 0 m/s | - | - |
| 1777957245 | 12.22° C | 69% | 1111 hPa | 0 mm | 0 m/s | - | - |
| 1777956645 | 11.67° C | 69% | 1111 hPa | 0 mm | 0 m/s | - | - |
| 1777956045 | 11.11° C | 70% | 1111 hPa | 0 mm | 0 m/s | - | - |
| 1777955445 | 11.11° C | 70% | 1111 hPa | 0 mm | 0 m/s | - | - |
| 1777954845 | 10.56° C | 70% | 1111 hPa | 0 mm | 0 m/s | - | - |
* Rain latest hour (hover to see other rain measurements)
** Current wind speed in m/s (hover to see current wind gust speed)